Time;durP1;ratioP1;P1;durP2;ratioP2;P2;SDS_P1;SDS_P2;PMS_P1;PMS_P2;Temp;Humidity;BMP_temperature;BMP_pressure;BME280_temperature;BME280_humidity;BME280_pressure;Samples;Min_cycle;Max_cycle;Signal;HPM_P1;HPM_P2
2022/11/10 00:00:36;;;;;;;1.97;0.97;;;;;;;;;;4911748;29;20205;-62
2022/11/10 00:03:04;;;;;;;6.10;0.93;;;;;;;;;;4911223;29;20741;-61
2022/11/10 00:05:33;;;;;;;1.13;1.07;;;;;;;;;;4911574;29;20205;-62
2022/11/10 00:08:02;;;;;;;0.90;0.90;;;;;;;;;;4910940;29;20215;-62
2022/11/10 00:10:29;;;;;;;2.47;0.97;;;;;;;;;;4911118;29;20231;-61
2022/11/10 00:12:59;;;;;;;1.87;0.77;;;;;;;;;;4910214;29;20200;-61
2022/11/10 00:18:20;;;;;;;3.93;1.27;;;;;;;;;;4896635;29;20267;-61
2022/11/10 00:20:48;;;;;;;4.03;1.17;;;;;;;;;;4910791;29;20208;-61
2022/11/10 00:23:15;;;;;;;1.17;0.80;;;;;;;;;;4911970;29;20235;-61
2022/11/10 00:25:42;;;;;;;1.23;1.00;;;;;;;;;;4908283;29;20239;-61
2022/11/10 00:28:09;;;;;;;1.37;0.67;;;;;;;;;;4907834;29;20205;-63
2022/11/10 00:30:37;;;;;;;0.97;0.80;;;;;;;;;;4900643;29;20204;-61
2022/11/10 00:33:05;;;;;;;2.87;0.70;;;;;;;;;;4911975;29;20208;-62
2022/11/10 00:35:32;;;;;;;0.90;0.90;;;;;;;;;;4911629;29;20231;-61
2022/11/10 00:38:00;;;;;;;1.70;0.90;;;;;;;;;;4911692;29;20216;-61
2022/11/10 00:40:27;;;;;;;2.33;0.77;;;;;;;;;;4911346;29;20235;-62
2022/11/10 00:42:54;;;;;;;2.23;1.00;;;;;;;;;;4911895;29;20239;-61
2022/11/10 00:45:21;;;;;;;0.70;0.70;;;;;;;;;;4911447;29;20212;-61
2022/11/10 00:47:48;;;;;;;3.40;0.87;;;;;;;;;;4909146;29;20209;-62
2022/11/10 00:50:16;;;;;;;4.23;1.23;;;;;;;;;;4900843;29;20952;-61
2022/11/10 00:52:43;;;;;;;0.67;0.60;;;;;;;;;;4904940;29;20231;-62
2022/11/10 00:55:11;;;;;;;0.77;0.77;;;;;;;;;;4908168;29;20232;-62
2022/11/10 00:57:38;;;;;;;2.77;1.30;;;;;;;;;;4912062;29;20220;-61
2022/11/10 01:00:06;;;;;;;3.20;0.90;;;;;;;;;;4909660;29;20212;-61
2022/11/10 01:02:33;;;;;;;2.40;0.73;;;;;;;;;;4908927;29;20251;-61
2022/11/10 01:05:00;;;;;;;1.80;0.80;;;;;;;;;;4912407;29;20216;-61
2022/11/10 01:07:27;;;;;;;2.83;0.93;;;;;;;;;;4911587;29;20211;-61
2022/11/10 01:09:54;;;;;;;1.60;0.90;;;;;;;;;;4908332;29;20220;-62
2022/11/10 01:12:23;;;;;;;1.80;0.97;;;;;;;;;;4908328;29;20605;-62
2022/11/10 01:14:50;;;;;;;1.00;0.77;;;;;;;;;;4909499;29;20208;-62
2022/11/10 01:17:17;;;;;;;1.50;1.03;;;;;;;;;;4915146;29;20208;-62
2022/11/10 01:19:44;;;;;;;2.20;1.20;;;;;;;;;;4909454;29;20213;-62
2022/11/10 01:22:11;;;;;;;1.63;1.17;;;;;;;;;;4907761;29;20671;-61
2022/11/10 01:24:38;;;;;;;3.03;0.90;;;;;;;;;;4907403;29;20603;-61
2022/11/10 01:27:05;;;;;;;3.03;1.27;;;;;;;;;;4910383;29;20208;-62
2022/11/10 01:29:33;;;;;;;1.53;0.90;;;;;;;;;;4907323;29;20216;-61
2022/11/10 01:32:00;;;;;;;3.27;0.90;;;;;;;;;;4906105;29;20602;-62
2022/11/10 01:34:28;;;;;;;0.83;0.80;;;;;;;;;;4907792;29;20205;-61
2022/11/10 01:36:55;;;;;;;1.27;1.17;;;;;;;;;;4907633;29;20208;-61
2022/11/10 01:39:22;;;;;;;3.03;0.80;;;;;;;;;;4913815;29;20774;-61
2022/11/10 01:41:49;;;;;;;0.63;0.63;;;;;;;;;;4911218;29;20659;-62
2022/11/10 01:44:17;;;;;;;0.93;0.83;;;;;;;;;;4907042;29;20581;-62
2022/11/10 01:46:46;;;;;;;0.70;0.70;;;;;;;;;;4907049;29;20657;-62
2022/11/10 01:49:14;;;;;;;1.47;0.73;;;;;;;;;;4911480;29;20216;-61
2022/11/10 01:51:45;;;;;;;0.60;0.60;;;;;;;;;;4910952;29;20660;-62
2022/11/10 01:54:14;;;;;;;1.47;0.70;;;;;;;;;;4907726;29;20232;-62
2022/11/10 01:56:43;;;;;;;1.13;0.80;;;;;;;;;;4913264;29;20703;-62
2022/11/10 01:59:13;;;;;;;3.27;0.70;;;;;;;;;;4909616;29;20243;-62
2022/11/10 02:01:40;;;;;;;0.50;0.50;;;;;;;;;;4904764;29;20212;-62
2022/11/10 02:04:11;;;;;;;2.00;0.80;;;;;;;;;;4905588;29;20696;-62
2022/11/10 02:07:09;;;;;;;1.10;1.00;;;;;;;;;;4906168;29;20213;-63
2022/11/10 02:09:36;;;;;;;0.63;0.63;;;;;;;;;;4914294;29;20254;-62
2022/11/10 02:12:03;;;;;;;0.83;0.83;;;;;;;;;;4908216;29;20565;-62
2022/11/10 02:14:31;;;;;;;1.00;0.97;;;;;;;;;;4913078;29;20204;-62
2022/11/10 02:16:58;;;;;;;0.60;0.60;;;;;;;;;;4913305;29;20213;-62
2022/11/10 02:19:26;;;;;;;2.10;0.80;;;;;;;;;;4908991;29;20208;-62
2022/11/10 02:21:55;;;;;;;2.83;0.60;;;;;;;;;;4913774;29;20212;-62
2022/11/10 02:24:22;;;;;;;2.93;0.80;;;;;;;;;;4914331;29;20208;-62
2022/11/10 02:26:51;;;;;;;0.90;0.90;;;;;;;;;;4913776;29;20228;-62
2022/11/10 02:29:18;;;;;;;2.33;0.60;;;;;;;;;;4914628;29;20220;-62
2022/11/10 02:31:45;;;;;;;0.70;0.70;;;;;;;;;;4907015;29;20217;-62
2022/11/10 02:34:12;;;;;;;0.80;0.80;;;;;;;;;;4913496;29;20220;-62
2022/11/10 02:36:39;;;;;;;7.90;1.20;;;;;;;;;;4912196;29;20694;-62
2022/11/10 02:39:08;;;;;;;0.93;0.93;;;;;;;;;;4913564;29;20566;-62
2022/11/10 02:41:35;;;;;;;1.83;0.73;;;;;;;;;;4910570;29;20311;-61
2022/11/10 02:44:03;;;;;;;0.90;0.90;;;;;;;;;;4912970;29;20232;-62
2022/11/10 02:46:30;;;;;;;1.80;0.73;;;;;;;;;;4912070;29;20667;-62
2022/11/10 02:48:57;;;;;;;1.47;0.80;;;;;;;;;;4909175;29;20723;-62
2022/11/10 02:51:24;;;;;;;5.43;0.97;;;;;;;;;;4912140;29;20216;-62
2022/11/10 02:53:51;;;;;;;0.80;0.80;;;;;;;;;;4912630;29;20205;-62
2022/11/10 02:56:20;;;;;;;2.77;0.90;;;;;;;;;;4912738;29;20204;-62
2022/11/10 02:58:47;;;;;;;0.80;0.80;;;;;;;;;;4907723;29;20232;-62
2022/11/10 03:01:14;;;;;;;4.53;0.80;;;;;;;;;;4912312;29;20212;-62
2022/11/10 03:03:41;;;;;;;0.70;0.70;;;;;;;;;;4911775;29;20228;-62
2022/11/10 03:06:08;;;;;;;1.80;0.90;;;;;;;;;;4911927;29;20217;-62
2022/11/10 03:08:36;;;;;;;0.70;0.70;;;;;;;;;;4911468;29;20208;-62
2022/11/10 03:11:03;;;;;;;0.63;0.63;;;;;;;;;;4911867;29;20212;-62
2022/11/10 03:13:32;;;;;;;0.87;0.87;;;;;;;;;;4903015;29;20208;-62
2022/11/10 03:15:59;;;;;;;1.63;0.93;;;;;;;;;;4913309;29;20212;-62
2022/11/10 03:18:26;;;;;;;0.80;0.80;;;;;;;;;;4909096;29;20212;-62
2022/11/10 03:20:53;;;;;;;0.70;0.70;;;;;;;;;;4908832;29;20201;-62
2022/11/10 03:23:20;;;;;;;1.30;1.20;;;;;;;;;;4911755;29;20730;-61
2022/11/10 03:25:47;;;;;;;2.17;0.90;;;;;;;;;;4912044;29;20204;-62
2022/11/10 03:28:14;;;;;;;2.73;1.20;;;;;;;;;;4911899;29;20216;-62
2022/11/10 03:30:42;;;;;;;1.07;1.07;;;;;;;;;;4911860;29;20220;-62
2022/11/10 03:33:10;;;;;;;3.73;0.67;;;;;;;;;;4900047;29;20951;-62
2022/11/10 03:35:37;;;;;;;0.70;0.70;;;;;;;;;;4912172;29;20660;-62
2022/11/10 03:38:04;;;;;;;1.27;1.10;;;;;;;;;;4912642;29;20213;-61
2022/11/10 03:40:31;;;;;;;1.43;1.07;;;;;;;;;;4910514;29;20220;-62
2022/11/10 03:42:58;;;;;;;6.57;1.13;;;;;;;;;;4910929;29;20297;-62
2022/11/10 03:45:25;;;;;;;7.73;1.30;;;;;;;;;;4912360;29;20212;-62
2022/11/10 03:47:54;;;;;;;3.87;1.30;;;;;;;;;;4912021;29;20284;-62
2022/11/10 03:50:21;;;;;;;1.00;1.00;;;;;;;;;;4910745;29;20215;-62
2022/11/10 03:52:48;;;;;;;1.27;1.27;;;;;;;;;;4908787;29;20209;-60
2022/11/10 03:55:17;;;;;;;1.90;0.83;;;;;;;;;;4909549;29;20236;-61
2022/11/10 03:57:44;;;;;;;0.97;0.97;;;;;;;;;;4908973;29;20469;-61
2022/11/10 04:00:12;;;;;;;1.63;1.13;;;;;;;;;;4910004;29;20223;-60
2022/11/10 04:02:40;;;;;;;1.13;1.00;;;;;;;;;;4907822;29;20228;-61
2022/11/10 04:10:42;;;;;;;0.77;0.77;;;;;;;;;;4908637;29;20235;-61
2022/11/10 04:15:54;;;;;;;1.90;0.80;;;;;;;;;;4909855;29;20204;-61
2022/11/10 04:18:23;;;;;;;0.83;0.83;;;;;;;;;;4909582;29;20216;-61
2022/11/10 04:20:52;;;;;;;1.97;1.00;;;;;;;;;;4906980;29;20205;-61
2022/11/10 04:23:29;;;;;;;0.87;0.80;;;;;;;;;;4909131;29;20235;-61
2022/11/10 04:28:42;;;;;;;2.90;1.10;;;;;;;;;;4909539;29;20291;-62
2022/11/10 04:31:09;;;;;;;2.00;0.90;;;;;;;;;;4908621;29;20586;-61
2022/11/10 04:33:37;;;;;;;5.60;1.00;;;;;;;;;;4910178;29;20200;-61
2022/11/10 04:36:06;;;;;;;1.20;1.10;;;;;;;;;;4909637;29;20208;-61
2022/11/10 04:38:33;;;;;;;2.37;1.30;;;;;;;;;;4908394;29;20979;-61
2022/11/10 04:41:00;;;;;;;3.50;1.40;;;;;;;;;;4908916;29;20205;-61
2022/11/10 04:43:27;;;;;;;1.57;1.23;;;;;;;;;;4909054;29;20236;-61
2022/11/10 04:45:55;;;;;;;1.57;1.20;;;;;;;;;;4910047;29;20212;-61
2022/11/10 04:48:22;;;;;;;1.70;1.10;;;;;;;;;;4909567;29;20227;-61
2022/11/10 04:50:49;;;;;;;4.67;0.90;;;;;;;;;;4910248;29;20952;-61
2022/11/10 04:53:17;;;;;;;1.37;1.07;;;;;;;;;;4909753;29;20303;-61
2022/11/10 04:55:45;;;;;;;2.53;1.10;;;;;;;;;;4908802;29;20236;-61
2022/11/10 04:58:12;;;;;;;1.07;0.93;;;;;;;;;;4908426;29;20741;-61
2022/11/10 05:00:40;;;;;;;1.00;1.00;;;;;;;;;;4906902;29;20213;-61
2022/11/10 05:03:09;;;;;;;1.83;0.93;;;;;;;;;;4908778;29;20220;-61
2022/11/10 05:05:37;;;;;;;4.90;0.90;;;;;;;;;;4909480;29;20201;-65
2022/11/10 05:08:04;;;;;;;0.83;0.83;;;;;;;;;;4909935;29;20212;-61
2022/11/10 05:10:33;;;;;;;1.47;1.20;;;;;;;;;;4908932;29;20581;-61
2022/11/10 05:13:00;;;;;;;2.67;1.10;;;;;;;;;;4907151;29;20213;-62
2022/11/10 05:15:27;;;;;;;0.97;0.80;;;;;;;;;;4909231;29;20216;-61
2022/11/10 05:17:55;;;;;;;1.30;1.20;;;;;;;;;;4909186;29;20240;-62
2022/11/10 05:20:23;;;;;;;0.90;0.90;;;;;;;;;;4910745;29;20590;-61
2022/11/10 05:25:33;;;;;;;1.10;1.10;;;;;;;;;;4911254;29;20589;-61
2022/11/10 05:28:00;;;;;;;0.87;0.87;;;;;;;;;;4909086;29;20204;-62
2022/11/10 05:30:27;;;;;;;0.87;0.87;;;;;;;;;;4909615;29;20694;-62
2022/11/10 05:32:54;;;;;;;2.87;1.40;;;;;;;;;;4910538;29;20213;-62
2022/11/10 05:35:22;;;;;;;1.00;1.00;;;;;;;;;;4910631;29;20205;-61
2022/11/10 05:37:49;;;;;;;1.77;1.10;;;;;;;;;;4909837;29;20208;-62
2022/11/10 05:40:16;;;;;;;1.03;1.03;;;;;;;;;;4910544;29;20231;-62
2022/11/10 05:42:45;;;;;;;1.03;0.90;;;;;;;;;;4913201;29;20212;-62
2022/11/10 05:45:12;;;;;;;1.37;1.33;;;;;;;;;;4912866;29;20471;-62
2022/11/10 05:47:39;;;;;;;1.10;1.10;;;;;;;;;;4911834;29;20209;-62
2022/11/10 05:50:07;;;;;;;1.50;1.30;;;;;;;;;;4913995;29;20213;-62
2022/11/10 05:52:34;;;;;;;1.23;1.13;;;;;;;;;;4913331;29;20670;-61
2022/11/10 05:55:02;;;;;;;1.30;1.30;;;;;;;;;;4911421;29;20220;-64
2022/11/10 05:57:29;;;;;;;1.20;1.20;;;;;;;;;;4911887;29;20223;-62
2022/11/10 05:59:57;;;;;;;1.50;1.40;;;;;;;;;;4909867;29;20223;-61
2022/11/10 06:02:24;;;;;;;2.57;1.30;;;;;;;;;;4911751;29;20204;-61
2022/11/10 06:04:51;;;;;;;1.40;1.30;;;;;;;;;;4914046;29;20224;-60
2022/11/10 06:07:18;;;;;;;1.60;1.20;;;;;;;;;;4914385;29;20219;-61
2022/11/10 06:09:47;;;;;;;1.63;1.53;;;;;;;;;;4914080;29;20235;-62
2022/11/10 06:12:14;;;;;;;1.30;1.30;;;;;;;;;;4914189;29;20750;-62
2022/11/10 06:14:41;;;;;;;8.63;1.43;;;;;;;;;;4913543;29;20256;-63
2022/11/10 06:17:09;;;;;;;4.43;1.37;;;;;;;;;;4913642;29;20219;-62
2022/11/10 06:19:37;;;;;;;3.80;1.20;;;;;;;;;;4914237;29;20709;-61
2022/11/10 06:22:04;;;;;;;1.13;1.13;;;;;;;;;;4914033;29;20215;-62
2022/11/10 06:24:31;;;;;;;1.13;1.13;;;;;;;;;;4913939;29;20232;-63
2022/11/10 06:26:58;;;;;;;2.67;1.43;;;;;;;;;;4911551;29;20694;-61
2022/11/10 06:29:25;;;;;;;3.33;1.80;;;;;;;;;;4912176;29;20212;-61
2022/11/10 06:31:52;;;;;;;3.47;1.93;;;;;;;;;;4907669;29;20205;-62
2022/11/10 06:34:21;;;;;;;1.50;1.50;;;;;;;;;;4912876;29;20267;-61
2022/11/10 06:36:48;;;;;;;1.30;1.30;;;;;;;;;;4912493;29;20209;-62
2022/11/10 06:39:15;;;;;;;2.10;1.30;;;;;;;;;;4913032;29;20208;-62
2022/11/10 06:41:42;;;;;;;1.50;1.40;;;;;;;;;;4913398;29;20219;-62
2022/11/10 06:44:10;;;;;;;3.43;1.40;;;;;;;;;;4911906;29;20225;-63
2022/11/10 06:46:37;;;;;;;1.53;1.43;;;;;;;;;;4913175;29;20374;-61
2022/11/10 06:49:05;;;;;;;3.23;1.83;;;;;;;;;;4912902;29;20687;-61
2022/11/10 06:51:33;;;;;;;1.63;1.53;;;;;;;;;;4912400;29;20726;-61
2022/11/10 06:54:00;;;;;;;2.13;1.67;;;;;;;;;;4912301;29;20232;-61
2022/11/10 06:56:27;;;;;;;2.57;1.67;;;;;;;;;;4912314;29;20911;-62
2022/11/10 06:58:54;;;;;;;1.90;1.70;;;;;;;;;;4910589;29;20256;-61
2022/11/10 07:01:25;;;;;;;1.67;1.57;;;;;;;;;;4912510;29;20252;-61
2022/11/10 07:03:52;;;;;;;3.03;2.20;;;;;;;;;;4896925;29;20677;-63
2022/11/10 07:06:19;;;;;;;3.87;2.50;;;;;;;;;;4908345;29;20212;-63
2022/11/10 07:08:48;;;;;;;4.87;1.70;;;;;;;;;;4912976;29;20231;-63
2022/11/10 07:11:15;;;;;;;2.70;2.20;;;;;;;;;;4912810;29;20214;-62
2022/11/10 07:13:42;;;;;;;2.83;2.37;;;;;;;;;;4912514;29;20212;-63
2022/11/10 07:16:10;;;;;;;3.17;2.53;;;;;;;;;;4912924;29;20722;-63
2022/11/10 07:18:37;;;;;;;3.60;2.50;;;;;;;;;;4912709;29;20212;-62
2022/11/10 07:21:04;;;;;;;4.33;2.40;;;;;;;;;;4912907;29;20242;-63
2022/11/10 07:23:32;;;;;;;7.37;2.43;;;;;;;;;;4912760;29;20622;-63
2022/11/10 07:26:01;;;;;;;3.80;2.50;;;;;;;;;;4912887;29;20307;-63
2022/11/10 07:28:28;;;;;;;2.50;2.30;;;;;;;;;;4912831;29;20671;-63
2022/11/10 07:30:55;;;;;;;2.23;2.10;;;;;;;;;;4912905;29;20272;-62
2022/11/10 07:33:22;;;;;;;7.70;2.73;;;;;;;;;;4912955;29;20223;-62
2022/11/10 07:35:54;;;;;;;4.13;2.70;;;;;;;;;;4912591;29;20235;-63
2022/11/10 07:38:21;;;;;;;3.73;2.67;;;;;;;;;;4912660;29;20222;-62
2022/11/10 07:40:51;;;;;;;2.97;2.67;;;;;;;;;;4912787;29;20222;-62
2022/11/10 07:43:19;;;;;;;6.27;2.53;;;;;;;;;;4912349;29;20208;-62
2022/11/10 07:45:46;;;;;;;4.07;2.37;;;;;;;;;;4905418;29;20216;-62
2022/11/10 07:48:13;;;;;;;4.50;3.20;;;;;;;;;;4911316;29;20698;-62
2022/11/10 07:50:40;;;;;;;7.07;2.77;;;;;;;;;;4912216;29;20600;-62
2022/11/10 07:53:09;;;;;;;5.67;2.70;;;;;;;;;;4911398;29;20221;-63
2022/11/10 07:55:37;;;;;;;5.27;3.40;;;;;;;;;;4911859;29;20917;-62
2022/11/10 07:58:04;;;;;;;4.40;3.20;;;;;;;;;;4911652;29;20244;-62
2022/11/10 08:00:33;;;;;;;3.30;2.57;;;;;;;;;;4911843;29;20220;-63
2022/11/10 08:03:04;;;;;;;6.53;2.63;;;;;;;;;;4911453;29;20702;-62
2022/11/10 08:05:31;;;;;;;3.47;3.10;;;;;;;;;;4910492;29;20232;-63
2022/11/10 08:07:59;;;;;;;4.37;3.10;;;;;;;;;;4911523;29;20225;-62
2022/11/10 08:13:30;;;;;;;4.33;2.57;;;;;;;;;;4907895;29;20195;-63
2022/11/10 08:15:59;;;;;;;5.00;2.53;;;;;;;;;;4911544;29;20219;-62
2022/11/10 08:18:26;;;;;;;3.53;3.10;;;;;;;;;;4911775;29;20212;-63
2022/11/10 08:20:53;;;;;;;5.13;3.60;;;;;;;;;;4911566;29;20212;-62
2022/11/10 08:23:20;;;;;;;4.67;3.60;;;;;;;;;;4910764;29;20208;-63
2022/11/10 08:25:51;;;;;;;6.03;3.23;;;;;;;;;;4911542;29;20224;-63
2022/11/10 08:28:19;;;;;;;4.60;2.70;;;;;;;;;;4912183;29;20204;-63
2022/11/10 08:30:47;;;;;;;8.60;3.53;;;;;;;;;;4911991;29;20256;-61
2022/11/10 08:33:17;;;;;;;5.53;4.03;;;;;;;;;;4911588;29;20235;-65
2022/11/10 08:35:45;;;;;;;9.73;3.43;;;;;;;;;;4913283;29;20220;-62
2022/11/10 08:38:13;;;;;;;12.10;4.17;;;;;;;;;;4911661;29;20220;-63
2022/11/10 08:40:41;;;;;;;8.83;4.20;;;;;;;;;;4911844;29;20564;-63
2022/11/10 08:43:08;;;;;;;7.27;3.50;;;;;;;;;;4910953;29;20208;-63
2022/11/10 08:45:35;;;;;;;6.63;3.97;;;;;;;;;;4910582;29;20778;-64
2022/11/10 08:48:04;;;;;;;7.60;3.43;;;;;;;;;;4908226;29;20743;-63
2022/11/10 08:50:32;;;;;;;11.60;3.30;;;;;;;;;;4908987;29;20648;-63
2022/11/10 08:53:01;;;;;;;6.27;3.33;;;;;;;;;;4908002;29;20224;-63
2022/11/10 08:55:28;;;;;;;4.47;3.10;;;;;;;;;;4907693;29;20863;-64
2022/11/10 08:57:59;;;;;;;3.57;2.73;;;;;;;;;;4893042;29;20240;-62
2022/11/10 09:00:27;;;;;;;3.50;2.47;;;;;;;;;;4895487;29;20212;-62
2022/11/10 09:02:54;;;;;;;2.27;2.10;;;;;;;;;;4901993;29;20217;-62
2022/11/10 09:05:22;;;;;;;2.63;2.20;;;;;;;;;;4909547;29;20273;-64
2022/11/10 09:07:51;;;;;;;2.60;2.50;;;;;;;;;;4910809;29;20216;-63
2022/11/10 09:10:18;;;;;;;7.40;2.50;;;;;;;;;;4911450;29;20220;-63
2022/11/10 09:12:45;;;;;;;6.83;2.90;;;;;;;;;;4911715;29;20699;-63
2022/11/10 09:15:13;;;;;;;2.60;2.40;;;;;;;;;;4911587;29;20209;-63
2022/11/10 09:17:40;;;;;;;4.57;2.33;;;;;;;;;;4902577;29;20217;-63
2022/11/10 09:20:08;;;;;;;3.07;2.70;;;;;;;;;;4896544;29;20213;-63
2022/11/10 09:22:36;;;;;;;4.40;3.10;;;;;;;;;;4896158;29;20580;-63
2022/11/10 09:25:05;;;;;;;7.53;2.30;;;;;;;;;;4904931;29;20232;-63
2022/11/10 09:27:35;;;;;;;5.40;2.50;;;;;;;;;;4914915;29;20221;-61
2022/11/10 09:30:02;;;;;;;3.20;2.17;;;;;;;;;;4914535;29;20208;-60
2022/11/10 09:32:30;;;;;;;4.75;2.35;;;;;;;;;;4912015;29;20216;-68
2022/11/10 09:34:58;;;;;;;2.65;1.80;;;;;;;;;;4904302;29;20746;-61
2022/11/10 09:37:25;;;;;;;2.75;2.55;;;;;;;;;;4907865;29;20329;-61
2022/11/10 09:39:52;;;;;;;4.53;2.03;;;;;;;;;;4913623;29;20255;-61
2022/11/10 09:42:26;;;;;;;4.10;2.30;;;;;;;;;;4900069;29;20221;-61
2022/11/10 09:44:58;;;;;;;3.55;2.10;;;;;;;;;;4912345;29;20255;-63
2022/11/10 09:47:27;;;;;;;2.25;2.00;;;;;;;;;;4911221;29;20281;-61
2022/11/10 09:49:59;;;;;;;2.60;2.10;;;;;;;;;;4913842;29;20231;-61
2022/11/10 09:52:27;;;;;;;6.25;2.35;;;;;;;;;;4898150;29;20213;-61
2022/11/10 09:54:57;;;;;;;2.13;2.00;;;;;;;;;;4910028;29;20239;-61
2022/11/10 09:57:26;;;;;;;2.92;1.77;;;;;;;;;;4893189;29;20220;-63
2022/11/10 09:59:54;;;;;;;4.72;1.80;;;;;;;;;;4911432;29;20204;-61
2022/11/10 10:02:25;;;;;;;1.75;1.65;;;;;;;;;;4911490;29;20208;-62
2022/11/10 10:05:02;;;;;;;3.17;1.65;;;;;;;;;;4913025;29;20236;-61
2022/11/10 10:07:31;;;;;;;4.07;2.20;;;;;;;;;;4905057;29;20221;-61
2022/11/10 10:10:02;;;;;;;5.30;2.28;;;;;;;;;;4910759;29;20216;-61
2022/11/10 10:12:41;;;;;;;6.30;2.00;;;;;;;;;;4909841;29;20217;-61
2022/11/10 10:15:13;;;;;;;2.90;1.97;;;;;;;;;;4901559;29;20212;-61
2022/11/10 10:17:43;;;;;;;2.73;1.60;;;;;;;;;;4907063;29;20222;-61
2022/11/10 10:20:14;;;;;;;2.97;1.67;;;;;;;;;;4901522;29;20212;-61
2022/11/10 10:22:50;;;;;;;3.35;1.55;;;;;;;;;;4913599;29;20403;-61
2022/11/10 10:25:19;;;;;;;4.20;1.37;;;;;;;;;;4905446;29;20239;-61
2022/11/10 10:27:50;;;;;;;1.00;1.00;;;;;;;;;;4912793;29;20213;-61
2022/11/10 10:30:19;;;;;;;1.83;1.27;;;;;;;;;;4913559;29;20260;-63
2022/11/10 10:32:46;;;;;;;1.93;1.10;;;;;;;;;;4913052;29;20200;-64
2022/11/10 10:35:14;;;;;;;1.23;1.13;;;;;;;;;;4913280;29;20600;-62
2022/11/10 10:37:44;;;;;;;2.43;1.20;;;;;;;;;;4913492;29;20584;-62
2022/11/10 10:40:14;;;;;;;3.13;1.53;;;;;;;;;;4911895;29;20264;-62
2022/11/10 10:42:41;;;;;;;4.30;1.50;;;;;;;;;;4912278;29;20668;-66
2022/11/10 10:45:17;;;;;;;1.10;1.10;;;;;;;;;;4912764;29;20236;-62
2022/11/10 10:47:44;;;;;;;1.23;0.80;;;;;;;;;;4913399;29;20215;-62
2022/11/10 10:50:32;;;;;;;3.60;1.13;;;;;;;;;;4912361;29;20215;-62
2022/11/10 10:53:23;;;;;;;1.10;0.80;;;;;;;;;;4910046;29;20220;-62
2022/11/10 10:55:53;;;;;;;2.93;0.90;;;;;;;;;;4889190;29;20630;-63
2022/11/10 10:58:25;;;;;;;5.18;1.00;;;;;;;;;;4900229;29;20240;-62
2022/11/10 11:00:56;;;;;;;2.10;0.87;;;;;;;;;;4904957;29;20590;-62
2022/11/10 11:03:26;;;;;;;2.58;0.75;;;;;;;;;;4913246;29;21003;-62
2022/11/10 11:06:07;;;;;;;2.97;1.47;;;;;;;;;;4912004;29;20232;-62
2022/11/10 11:08:34;;;;;;;1.58;0.98;;;;;;;;;;4908831;29;20217;-62
2022/11/10 11:11:08;;;;;;;2.97;0.98;;;;;;;;;;4906055;29;20690;-62
2022/11/10 11:13:35;;;;;;;4.20;1.23;;;;;;;;;;4912449;29;20207;-62
2022/11/10 11:16:06;;;;;;;1.80;1.10;;;;;;;;;;4911725;29;20217;-63
2022/11/10 11:18:33;;;;;;;1.95;0.93;;;;;;;;;;4911732;29;20382;-62
2022/11/10 11:21:02;;;;;;;1.05;1.05;;;;;;;;;;4913585;29;20223;-62
2022/11/10 11:23:41;;;;;;;2.97;0.98;;;;;;;;;;4912937;29;20860;-62
2022/11/10 11:26:10;;;;;;;2.28;0.90;;;;;;;;;;4909102;29;20271;-62
2022/11/10 11:28:41;;;;;;;7.30;1.20;;;;;;;;;;4901645;29;20200;-62
2022/11/10 11:31:14;;;;;;;4.18;1.27;;;;;;;;;;4899661;29;20215;-62
2022/11/10 11:33:43;;;;;;;2.38;0.80;;;;;;;;;;4901592;29;20216;-62
2022/11/10 11:36:18;;;;;;;0.90;0.90;;;;;;;;;;4912706;29;20799;-62
2022/11/10 11:38:53;;;;;;;2.70;1.10;;;;;;;;;;4911010;29;20228;-62
2022/11/10 11:41:24;;;;;;;0.65;0.65;;;;;;;;;;4912947;29;20235;-62
2022/11/10 11:44:01;;;;;;;3.85;1.38;;;;;;;;;;4911468;29;20219;-62
2022/11/10 11:46:34;;;;;;;2.70;1.10;;;;;;;;;;4912963;29;20236;-62
2022/11/10 11:49:09;;;;;;;0.98;0.93;;;;;;;;;;4911349;29;20231;-62
2022/11/10 11:51:37;;;;;;;0.80;0.80;;;;;;;;;;4912087;29;20235;-62
2022/11/10 11:54:19;;;;;;;0.80;0.80;;;;;;;;;;4911244;29;20243;-62
2022/11/10 11:56:49;;;;;;;3.13;1.33;;;;;;;;;;4895729;29;20232;-66
2022/11/10 11:59:25;;;;;;;1.40;1.20;;;;;;;;;;4911716;29;20255;-62
2022/11/10 12:02:02;;;;;;;1.83;1.00;;;;;;;;;;4911814;29;20650;-63
2022/11/10 12:04:42;;;;;;;1.70;1.25;;;;;;;;;;4908264;29;20219;-62
2022/11/10 12:07:17;;;;;;;1.83;1.40;;;;;;;;;;4912271;29;20224;-64
2022/11/10 12:09:46;;;;;;;1.33;1.23;;;;;;;;;;4912846;29;20212;-62
2022/11/10 12:12:30;;;;;;;1.23;1.17;;;;;;;;;;4909382;29;20694;-63
2022/11/10 12:15:02;;;;;;;0.93;0.93;;;;;;;;;;4908262;29;20302;-61
2022/11/10 12:17:38;;;;;;;1.33;1.23;;;;;;;;;;4910887;29;20220;-62
2022/11/10 12:20:16;;;;;;;3.03;0.82;;;;;;;;;;4907612;29;20215;-63
2022/11/10 12:22:49;;;;;;;0.80;0.80;;;;;;;;;;4909563;29;20557;-62
2022/11/10 12:25:20;;;;;;;2.08;1.20;;;;;;;;;;4916418;29;20238;-62
2022/11/10 12:27:50;;;;;;;2.75;0.82;;;;;;;;;;4894044;29;20213;-63
2022/11/10 12:30:18;;;;;;;1.27;1.13;;;;;;;;;;4911759;29;20893;-62
2022/11/10 12:32:49;;;;;;;1.38;1.15;;;;;;;;;;4909756;29;20593;-62
2022/11/10 12:35:19;;;;;;;1.30;1.20;;;;;;;;;;4918719;29;20211;-62
2022/11/10 12:37:49;;;;;;;1.30;0.63;;;;;;;;;;4916518;29;20299;-62
2022/11/10 12:40:18;;;;;;;0.90;0.90;;;;;;;;;;4910815;29;20663;-62
2022/11/10 12:42:50;;;;;;;1.92;0.90;;;;;;;;;;4911316;29;20208;-62
2022/11/10 12:45:19;;;;;;;4.43;1.23;;;;;;;;;;4911035;29;20226;-62
2022/11/10 12:47:49;;;;;;;2.63;1.23;;;;;;;;;;4918538;29;20335;-62
2022/11/10 12:50:40;;;;;;;3.40;0.90;;;;;;;;;;4916832;29;20219;-62
2022/11/10 12:53:12;;;;;;;1.67;0.85;;;;;;;;;;4903876;29;20223;-63
2022/11/10 12:55:42;;;;;;;2.70;0.98;;;;;;;;;;4932782;29;20251;-62
2022/11/10 12:58:12;;;;;;;2.55;1.15;;;;;;;;;;4919214;29;20240;-64
2022/11/10 13:00:41;;;;;;;1.58;1.30;;;;;;;;;;4923736;29;20208;-63
2022/11/10 13:03:14;;;;;;;5.90;1.00;;;;;;;;;;4932236;29;20219;-62
2022/11/10 13:05:44;;;;;;;0.82;0.82;;;;;;;;;;4933321;29;20235;-62
2022/11/10 13:08:17;;;;;;;2.25;1.17;;;;;;;;;;4916671;29;20993;-63
2022/11/10 13:10:50;;;;;;;1.25;1.20;;;;;;;;;;4914646;29;20212;-62
2022/11/10 13:13:17;;;;;;;7.10;1.65;;;;;;;;;;4915627;29;20215;-69
2022/11/10 13:15:49;;;;;;;2.03;0.88;;;;;;;;;;4924825;29;20216;-63
2022/11/10 13:18:24;;;;;;;2.28;1.23;;;;;;;;;;4914413;29;20226;-64
2022/11/10 13:20:53;;;;;;;4.72;1.45;;;;;;;;;;4913267;29;20659;-62
2022/11/10 13:23:28;;;;;;;2.15;1.13;;;;;;;;;;4917312;29;20204;-63
2022/11/10 13:25:57;;;;;;;3.33;1.50;;;;;;;;;;4915979;29;20235;-62
2022/11/10 13:28:51;;;;;;;2.17;1.67;;;;;;;;;;4914818;29;20216;-62
2022/11/10 13:31:37;;;;;;;5.53;1.55;;;;;;;;;;4895623;29;20213;-62
2022/11/10 13:34:09;;;;;;;1.08;1.08;;;;;;;;;;4903247;29;20228;-62
2022/11/10 13:36:37;;;;;;;1.23;0.85;;;;;;;;;;4914694;29;20208;-62
2022/11/10 13:39:16;;;;;;;1.67;0.77;;;;;;;;;;4923979;29;20663;-63
2022/11/10 13:41:46;;;;;;;3.35;1.40;;;;;;;;;;4912757;29;20220;-63
2022/11/10 13:44:23;;;;;;;0.80;0.80;;;;;;;;;;4913050;29;20224;-63
2022/11/10 13:46:58;;;;;;;2.45;1.17;;;;;;;;;;4913597;29;20228;-62
2022/11/10 13:49:35;;;;;;;0.90;0.90;;;;;;;;;;4916070;29;20958;-62
2022/11/10 13:52:06;;;;;;;1.15;1.15;;;;;;;;;;4912671;29;20223;-62
2022/11/10 13:54:48;;;;;;;1.75;1.30;;;;;;;;;;4922963;29;20233;-62
2022/11/10 13:57:20;;;;;;;1.25;1.13;;;;;;;;;;4901078;29;20232;-63
2022/11/10 13:59:51;;;;;;;1.23;1.10;;;;;;;;;;4916466;29;20243;-62
2022/11/10 14:02:37;;;;;;;2.28;1.15;;;;;;;;;;4906521;29;20217;-62
2022/11/10 14:05:07;;;;;;;4.95;0.93;;;;;;;;;;4894145;29;20735;-62
2022/11/10 14:07:37;;;;;;;1.13;0.90;;;;;;;;;;4912160;29;20211;-62
2022/11/10 14:10:05;;;;;;;7.05;1.45;;;;;;;;;;4914608;29;20985;-62
2022/11/10 14:12:34;;;;;;;2.08;0.90;;;;;;;;;;4933098;29;20211;-63
2022/11/10 14:15:03;;;;;;;1.85;1.02;;;;;;;;;;4931496;29;20216;-63
2022/11/10 14:17:32;;;;;;;1.00;1.00;;;;;;;;;;4932828;29;20208;-62
2022/11/10 14:20:00;;;;;;;0.95;0.95;;;;;;;;;;4932989;29;20219;-63
2022/11/10 14:22:30;;;;;;;2.28;1.10;;;;;;;;;;4932956;29;20220;-62
2022/11/10 14:25:01;;;;;;;1.08;1.08;;;;;;;;;;4924754;29;20351;-62
2022/11/10 14:27:29;;;;;;;1.13;1.13;;;;;;;;;;4913688;29;20240;-65
2022/11/10 14:30:07;;;;;;;2.53;1.27;;;;;;;;;;4913300;29;20243;-63
2022/11/10 14:32:34;;;;;;;2.65;1.25;;;;;;;;;;4913892;29;20219;-64
2022/11/10 14:35:01;;;;;;;1.73;1.27;;;;;;;;;;4913440;29;20709;-63
2022/11/10 14:37:30;;;;;;;1.30;1.00;;;;;;;;;;4913360;29;20291;-64
2022/11/10 14:39:58;;;;;;;1.70;1.30;;;;;;;;;;4913749;29;20842;-63
2022/11/10 14:42:26;;;;;;;3.42;0.95;;;;;;;;;;4913826;29;20212;-64
2022/11/10 14:45:05;;;;;;;1.48;1.20;;;;;;;;;;4912942;29;20300;-65
2022/11/10 14:47:34;;;;;;;3.55;1.23;;;;;;;;;;4913466;29;20231;-65
2022/11/10 14:50:09;;;;;;;1.35;0.90;;;;;;;;;;4913506;29;20343;-65
2022/11/10 14:52:42;;;;;;;1.20;1.10;;;;;;;;;;4913663;29;20220;-66
2022/11/10 14:55:10;;;;;;;4.32;1.00;;;;;;;;;;4913726;29;20240;-64
2022/11/10 14:57:38;;;;;;;3.28;1.30;;;;;;;;;;4913243;29;20216;-65
2022/11/10 15:00:07;;;;;;;2.15;1.02;;;;;;;;;;4913052;29;20277;-65
2022/11/10 15:02:34;;;;;;;3.90;1.30;;;;;;;;;;4913211;29;20235;-65
2022/11/10 15:05:02;;;;;;;1.00;1.00;;;;;;;;;;4913295;29;20254;-65
2022/11/10 15:07:30;;;;;;;3.57;1.50;;;;;;;;;;4912073;29;20244;-65
2022/11/10 15:10:13;;;;;;;3.10;1.13;;;;;;;;;;4913212;29;20680;-65
2022/11/10 15:12:40;;;;;;;3.63;1.60;;;;;;;;;;4912775;29;20303;-65
2022/11/10 15:15:20;;;;;;;2.03;1.40;;;;;;;;;;4912819;29;20571;-65